sensor_id;sensor_type;location;lat;lon;timestamp;P1;durP1;ratioP1;P2;durP2;ratioP2
17488;SDS011;8861;52.644;4.734;2024-02-21T00:00:31;38.30;;;6.00;;
17488;SDS011;8861;52.644;4.734;2024-02-21T00:02:58;35.20;;;6.20;;
17488;SDS011;8861;52.644;4.734;2024-02-21T00:05:27;37.40;;;6.10;;
17488;SDS011;8861;52.644;4.734;2024-02-21T00:07:54;41.17;;;6.33;;
17488;SDS011;8861;52.644;4.734;2024-02-21T00:10:23;36.93;;;6.50;;
17488;SDS011;8861;52.644;4.734;2024-02-21T00:12:51;35.07;;;5.87;;
17488;SDS011;8861;52.644;4.734;2024-02-21T00:15:19;46.50;;;6.23;;
17488;SDS011;8861;52.644;4.734;2024-02-21T00:17:46;31.47;;;5.77;;
17488;SDS011;8861;52.644;4.734;2024-02-21T00:20:14;40.43;;;6.23;;
17488;SDS011;8861;52.644;4.734;2024-02-21T00:22:41;41.83;;;6.60;;
17488;SDS011;8861;52.644;4.734;2024-02-21T00:25:08;35.00;;;6.03;;
17488;SDS011;8861;52.644;4.734;2024-02-21T00:27:37;36.50;;;7.10;;
17488;SDS011;8861;52.644;4.734;2024-02-21T00:30:05;28.90;;;5.53;;
17488;SDS011;8861;52.644;4.734;2024-02-21T00:32:32;35.03;;;6.47;;
17488;SDS011;8861;52.644;4.734;2024-02-21T00:35:00;38.27;;;6.43;;
17488;SDS011;8861;52.644;4.734;2024-02-21T00:37:27;34.47;;;6.27;;
17488;SDS011;8861;52.644;4.734;2024-02-21T00:39:55;31.17;;;5.63;;
17488;SDS011;8861;52.644;4.734;2024-02-21T00:42:22;33.80;;;6.07;;
17488;SDS011;8861;52.644;4.734;2024-02-21T00:44:51;36.80;;;6.53;;
17488;SDS011;8861;52.644;4.734;2024-02-21T00:47:18;27.53;;;5.60;;
17488;SDS011;8861;52.644;4.734;2024-02-21T00:49:45;33.67;;;5.97;;
17488;SDS011;8861;52.644;4.734;2024-02-21T00:52:12;36.97;;;6.07;;
17488;SDS011;8861;52.644;4.734;2024-02-21T00:54:39;33.80;;;5.83;;
17488;SDS011;8861;52.644;4.734;2024-02-21T00:57:06;24.37;;;5.67;;
17488;SDS011;8861;52.644;4.734;2024-02-21T00:59:33;36.10;;;5.90;;
17488;SDS011;8861;52.644;4.734;2024-02-21T01:02:01;35.03;;;5.73;;
17488;SDS011;8861;52.644;4.734;2024-02-21T01:04:28;50.03;;;6.67;;
17488;SDS011;8861;52.644;4.734;2024-02-21T01:06:55;37.70;;;6.23;;
17488;SDS011;8861;52.644;4.734;2024-02-21T01:09:22;37.00;;;6.60;;
17488;SDS011;8861;52.644;4.734;2024-02-21T01:11:50;31.40;;;6.13;;
17488;SDS011;8861;52.644;4.734;2024-02-21T01:14:17;34.97;;;6.20;;
17488;SDS011;8861;52.644;4.734;2024-02-21T01:16:44;36.53;;;6.07;;
17488;SDS011;8861;52.644;4.734;2024-02-21T01:19:13;33.27;;;6.27;;
17488;SDS011;8861;52.644;4.734;2024-02-21T01:21:40;30.60;;;5.53;;
17488;SDS011;8861;52.644;4.734;2024-02-21T01:24:07;29.07;;;6.00;;
17488;SDS011;8861;52.644;4.734;2024-02-21T01:26:34;32.23;;;5.70;;
17488;SDS011;8861;52.644;4.734;2024-02-21T01:29:01;31.87;;;5.93;;
17488;SDS011;8861;52.644;4.734;2024-02-21T01:31:28;25.00;;;5.63;;
17488;SDS011;8861;52.644;4.734;2024-02-21T01:33:56;41.70;;;5.83;;
17488;SDS011;8861;52.644;4.734;2024-02-21T01:36:24;31.20;;;5.90;;
17488;SDS011;8861;52.644;4.734;2024-02-21T01:38:51;34.40;;;5.33;;
17488;SDS011;8861;52.644;4.734;2024-02-21T01:41:18;26.40;;;6.03;;
17488;SDS011;8861;52.644;4.734;2024-02-21T01:43:45;34.43;;;5.53;;
17488;SDS011;8861;52.644;4.734;2024-02-21T01:46:12;33.17;;;6.03;;
17488;SDS011;8861;52.644;4.734;2024-02-21T01:48:39;37.53;;;5.83;;
17488;SDS011;8861;52.644;4.734;2024-02-21T01:51:07;33.67;;;5.83;;
17488;SDS011;8861;52.644;4.734;2024-02-21T01:53:37;31.27;;;5.97;;
17488;SDS011;8861;52.644;4.734;2024-02-21T01:56:09;37.00;;;5.67;;
17488;SDS011;8861;52.644;4.734;2024-02-21T01:58:37;31.50;;;5.80;;
17488;SDS011;8861;52.644;4.734;2024-02-21T02:01:06;35.00;;;5.93;;
17488;SDS011;8861;52.644;4.734;2024-02-21T02:03:33;40.17;;;6.60;;
17488;SDS011;8861;52.644;4.734;2024-02-21T02:06:01;39.27;;;6.50;;
17488;SDS011;8861;52.644;4.734;2024-02-21T02:08:28;35.30;;;6.10;;
17488;SDS011;8861;52.644;4.734;2024-02-21T02:10:57;34.23;;;6.17;;
17488;SDS011;8861;52.644;4.734;2024-02-21T02:13:24;34.27;;;6.10;;
17488;SDS011;8861;52.644;4.734;2024-02-21T02:15:51;31.17;;;6.50;;
17488;SDS011;8861;52.644;4.734;2024-02-21T02:18:19;35.20;;;6.10;;
17488;SDS011;8861;52.644;4.734;2024-02-21T02:20:46;38.70;;;6.33;;
17488;SDS011;8861;52.644;4.734;2024-02-21T02:23:19;39.07;;;6.40;;
17488;SDS011;8861;52.644;4.734;2024-02-21T02:25:48;35.87;;;6.00;;
17488;SDS011;8861;52.644;4.734;2024-02-21T02:28:17;37.97;;;5.97;;
17488;SDS011;8861;52.644;4.734;2024-02-21T02:30:44;38.03;;;6.33;;
17488;SDS011;8861;52.644;4.734;2024-02-21T02:33:12;34.37;;;6.43;;
17488;SDS011;8861;52.644;4.734;2024-02-21T02:35:39;37.03;;;6.37;;
17488;SDS011;8861;52.644;4.734;2024-02-21T02:38:08;32.73;;;5.97;;
17488;SDS011;8861;52.644;4.734;2024-02-21T02:40:38;34.27;;;6.17;;
17488;SDS011;8861;52.644;4.734;2024-02-21T02:43:06;33.80;;;6.57;;
17488;SDS011;8861;52.644;4.734;2024-02-21T02:45:33;39.00;;;6.97;;
17488;SDS011;8861;52.644;4.734;2024-02-21T02:48:00;34.23;;;6.70;;
17488;SDS011;8861;52.644;4.734;2024-02-21T02:50:27;29.77;;;6.10;;
17488;SDS011;8861;52.644;4.734;2024-02-21T02:52:54;41.80;;;7.00;;
17488;SDS011;8861;52.644;4.734;2024-02-21T02:55:22;36.17;;;7.07;;
17488;SDS011;8861;52.644;4.734;2024-02-21T02:57:50;37.63;;;6.70;;
17488;SDS011;8861;52.644;4.734;2024-02-21T03:00:18;34.20;;;6.40;;
17488;SDS011;8861;52.644;4.734;2024-02-21T03:02:45;39.70;;;7.10;;
17488;SDS011;8861;52.644;4.734;2024-02-21T03:05:15;44.20;;;7.00;;
17488;SDS011;8861;52.644;4.734;2024-02-21T03:07:44;37.33;;;7.27;;
17488;SDS011;8861;52.644;4.734;2024-02-21T03:10:12;47.93;;;7.07;;
17488;SDS011;8861;52.644;4.734;2024-02-21T03:12:39;35.37;;;7.67;;
17488;SDS011;8861;52.644;4.734;2024-02-21T03:15:08;33.87;;;6.87;;
17488;SDS011;8861;52.644;4.734;2024-02-21T03:17:36;43.80;;;7.27;;
17488;SDS011;8861;52.644;4.734;2024-02-21T03:20:03;39.90;;;6.50;;
17488;SDS011;8861;52.644;4.734;2024-02-21T03:22:34;36.83;;;7.27;;
17488;SDS011;8861;52.644;4.734;2024-02-21T03:25:01;32.17;;;6.90;;
17488;SDS011;8861;52.644;4.734;2024-02-21T03:27:28;31.77;;;6.83;;
17488;SDS011;8861;52.644;4.734;2024-02-21T03:29:55;32.33;;;6.13;;
17488;SDS011;8861;52.644;4.734;2024-02-21T03:32:23;42.97;;;7.27;;
17488;SDS011;8861;52.644;4.734;2024-02-21T03:34:51;35.27;;;7.20;;
17488;SDS011;8861;52.644;4.734;2024-02-21T03:37:18;34.63;;;6.27;;
17488;SDS011;8861;52.644;4.734;2024-02-21T03:39:44;37.20;;;6.70;;
17488;SDS011;8861;52.644;4.734;2024-02-21T03:42:11;35.43;;;6.83;;
17488;SDS011;8861;52.644;4.734;2024-02-21T03:44:38;41.70;;;6.10;;
17488;SDS011;8861;52.644;4.734;2024-02-21T03:47:05;29.07;;;6.30;;
17488;SDS011;8861;52.644;4.734;2024-02-21T03:49:37;26.70;;;5.43;;
17488;SDS011;8861;52.644;4.734;2024-02-21T03:52:04;25.77;;;6.30;;
17488;SDS011;8861;52.644;4.734;2024-02-21T03:54:31;32.13;;;6.37;;
17488;SDS011;8861;52.644;4.734;2024-02-21T03:57:00;27.13;;;6.10;;
17488;SDS011;8861;52.644;4.734;2024-02-21T03:59:27;29.57;;;6.10;;
17488;SDS011;8861;52.644;4.734;2024-02-21T04:01:54;31.83;;;6.03;;
17488;SDS011;8861;52.644;4.734;2024-02-21T04:04:21;22.83;;;5.10;;
17488;SDS011;8861;52.644;4.734;2024-02-21T04:06:50;21.97;;;5.37;;
17488;SDS011;8861;52.644;4.734;2024-02-21T04:09:18;24.80;;;5.17;;
17488;SDS011;8861;52.644;4.734;2024-02-21T04:11:45;34.70;;;6.47;;
17488;SDS011;8861;52.644;4.734;2024-02-21T04:14:12;28.00;;;5.87;;
17488;SDS011;8861;52.644;4.734;2024-02-21T04:16:39;34.20;;;6.23;;
17488;SDS011;8861;52.644;4.734;2024-02-21T04:19:06;32.97;;;5.87;;
17488;SDS011;8861;52.644;4.734;2024-02-21T04:21:34;27.43;;;5.40;;
17488;SDS011;8861;52.644;4.734;2024-02-21T04:24:03;25.40;;;5.57;;
17488;SDS011;8861;52.644;4.734;2024-02-21T04:26:30;37.63;;;7.23;;
17488;SDS011;8861;52.644;4.734;2024-02-21T04:28:57;33.97;;;7.57;;
17488;SDS011;8861;52.644;4.734;2024-02-21T04:31:24;36.73;;;7.17;;
17488;SDS011;8861;52.644;4.734;2024-02-21T04:33:51;35.03;;;7.50;;
17488;SDS011;8861;52.644;4.734;2024-02-21T04:36:18;39.10;;;7.73;;
17488;SDS011;8861;52.644;4.734;2024-02-21T04:38:45;36.57;;;7.73;;
17488;SDS011;8861;52.644;4.734;2024-02-21T04:41:14;38.70;;;6.83;;
17488;SDS011;8861;52.644;4.734;2024-02-21T04:43:41;37.23;;;7.70;;
17488;SDS011;8861;52.644;4.734;2024-02-21T04:46:08;33.80;;;6.60;;
17488;SDS011;8861;52.644;4.734;2024-02-21T04:48:37;35.10;;;7.53;;
17488;SDS011;8861;52.644;4.734;2024-02-21T04:51:04;30.67;;;6.67;;
17488;SDS011;8861;52.644;4.734;2024-02-21T04:53:34;30.93;;;6.07;;
17488;SDS011;8861;52.644;4.734;2024-02-21T04:56:01;33.37;;;7.00;;
17488;SDS011;8861;52.644;4.734;2024-02-21T04:58:30;31.10;;;6.27;;
17488;SDS011;8861;52.644;4.734;2024-02-21T05:00:57;37.37;;;7.70;;
17488;SDS011;8861;52.644;4.734;2024-02-21T05:03:24;38.43;;;6.80;;
17488;SDS011;8861;52.644;4.734;2024-02-21T05:05:51;38.47;;;7.20;;
17488;SDS011;8861;52.644;4.734;2024-02-21T05:08:17;39.93;;;6.97;;
17488;SDS011;8861;52.644;4.734;2024-02-21T05:10:44;36.53;;;6.50;;
17488;SDS011;8861;52.644;4.734;2024-02-21T05:13:11;37.53;;;7.30;;
17488;SDS011;8861;52.644;4.734;2024-02-21T05:15:40;34.57;;;6.83;;
17488;SDS011;8861;52.644;4.734;2024-02-21T05:18:10;33.60;;;7.07;;
17488;SDS011;8861;52.644;4.734;2024-02-21T05:20:37;32.30;;;6.93;;
17488;SDS011;8861;52.644;4.734;2024-02-21T05:23:04;22.83;;;5.57;;
17488;SDS011;8861;52.644;4.734;2024-02-21T05:25:31;35.30;;;7.07;;
17488;SDS011;8861;52.644;4.734;2024-02-21T05:27:58;27.03;;;6.17;;
17488;SDS011;8861;52.644;4.734;2024-02-21T05:30:27;39.90;;;7.10;;
17488;SDS011;8861;52.644;4.734;2024-02-21T05:32:56;34.00;;;6.70;;
17488;SDS011;8861;52.644;4.734;2024-02-21T05:35:25;39.53;;;7.23;;
17488;SDS011;8861;52.644;4.734;2024-02-21T05:37:53;35.30;;;7.20;;
17488;SDS011;8861;52.644;4.734;2024-02-21T05:40:19;27.80;;;6.53;;
17488;SDS011;8861;52.644;4.734;2024-02-21T05:42:47;30.97;;;6.87;;
17488;SDS011;8861;52.644;4.734;2024-02-21T05:45:14;37.00;;;7.10;;
17488;SDS011;8861;52.644;4.734;2024-02-21T05:47:41;25.93;;;6.37;;
17488;SDS011;8861;52.644;4.734;2024-02-21T05:50:10;23.73;;;6.47;;
17488;SDS011;8861;52.644;4.734;2024-02-21T05:52:37;24.83;;;6.37;;
17488;SDS011;8861;52.644;4.734;2024-02-21T05:55:06;32.33;;;6.80;;
17488;SDS011;8861;52.644;4.734;2024-02-21T05:57:33;29.57;;;6.87;;
17488;SDS011;8861;52.644;4.734;2024-02-21T06:00:02;23.53;;;6.23;;
17488;SDS011;8861;52.644;4.734;2024-02-21T06:02:31;31.97;;;6.97;;
17488;SDS011;8861;52.644;4.734;2024-02-21T06:04:58;27.40;;;6.97;;
17488;SDS011;8861;52.644;4.734;2024-02-21T06:07:27;33.70;;;8.80;;
17488;SDS011;8861;52.644;4.734;2024-02-21T06:09:54;32.80;;;8.60;;
17488;SDS011;8861;52.644;4.734;2024-02-21T06:12:21;27.50;;;9.83;;
17488;SDS011;8861;52.644;4.734;2024-02-21T06:14:48;31.73;;;9.47;;
17488;SDS011;8861;52.644;4.734;2024-02-21T06:17:16;30.73;;;10.20;;
17488;SDS011;8861;52.644;4.734;2024-02-21T06:19:43;31.47;;;9.70;;
17488;SDS011;8861;52.644;4.734;2024-02-21T06:22:10;37.27;;;10.27;;
17488;SDS011;8861;52.644;4.734;2024-02-21T06:24:39;35.87;;;10.37;;
17488;SDS011;8861;52.644;4.734;2024-02-21T06:27:07;28.07;;;9.57;;
17488;SDS011;8861;52.644;4.734;2024-02-21T06:29:36;26.50;;;9.73;;
17488;SDS011;8861;52.644;4.734;2024-02-21T06:32:03;28.70;;;9.80;;
17488;SDS011;8861;52.644;4.734;2024-02-21T06:34:31;28.93;;;10.00;;
17488;SDS011;8861;52.644;4.734;2024-02-21T06:36:58;30.83;;;9.70;;
17488;SDS011;8861;52.644;4.734;2024-02-21T06:39:25;26.17;;;9.87;;
17488;SDS011;8861;52.644;4.734;2024-02-21T06:41:55;29.97;;;10.47;;
17488;SDS011;8861;52.644;4.734;2024-02-21T06:44:22;33.20;;;11.07;;
17488;SDS011;8861;52.644;4.734;2024-02-21T06:46:49;25.97;;;9.97;;
17488;SDS011;8861;52.644;4.734;2024-02-21T06:49:16;28.40;;;10.87;;
17488;SDS011;8861;52.644;4.734;2024-02-21T06:51:43;36.50;;;10.47;;
17488;SDS011;8861;52.644;4.734;2024-02-21T06:54:10;30.43;;;9.87;;
17488;SDS011;8861;52.644;4.734;2024-02-21T06:56:37;28.30;;;10.07;;
17488;SDS011;8861;52.644;4.734;2024-02-21T06:59:07;32.77;;;10.60;;
17488;SDS011;8861;52.644;4.734;2024-02-21T07:01:35;26.07;;;10.23;;
17488;SDS011;8861;52.644;4.734;2024-02-21T07:04:02;33.43;;;10.37;;
17488;SDS011;8861;52.644;4.734;2024-02-21T07:06:29;34.13;;;10.00;;
17488;SDS011;8861;52.644;4.734;2024-02-21T07:08:56;27.13;;;9.30;;
17488;SDS011;8861;52.644;4.734;2024-02-21T07:11:23;27.63;;;10.10;;
17488;SDS011;8861;52.644;4.734;2024-02-21T07:13:50;21.37;;;9.87;;
17488;SDS011;8861;52.644;4.734;2024-02-21T07:16:20;30.70;;;11.37;;
17488;SDS011;8861;52.644;4.734;2024-02-21T07:18:47;24.93;;;10.53;;
17488;SDS011;8861;52.644;4.734;2024-02-21T07:21:14;21.77;;;10.40;;
17488;SDS011;8861;52.644;4.734;2024-02-21T07:23:41;23.20;;;10.77;;
17488;SDS011;8861;52.644;4.734;2024-02-21T07:26:08;29.73;;;12.50;;
17488;SDS011;8861;52.644;4.734;2024-02-21T07:28:35;28.07;;;12.13;;
17488;SDS011;8861;52.644;4.734;2024-02-21T07:31:02;24.27;;;11.80;;
17488;SDS011;8861;52.644;4.734;2024-02-21T07:33:31;26.77;;;11.83;;
17488;SDS011;8861;52.644;4.734;2024-02-21T07:36:00;23.73;;;11.80;;
17488;SDS011;8861;52.644;4.734;2024-02-21T07:38:27;33.47;;;11.97;;
17488;SDS011;8861;52.644;4.734;2024-02-21T07:40:55;24.83;;;11.70;;
17488;SDS011;8861;52.644;4.734;2024-02-21T07:43:21;28.77;;;12.07;;
17488;SDS011;8861;52.644;4.734;2024-02-21T07:45:49;30.13;;;12.57;;
17488;SDS011;8861;52.644;4.734;2024-02-21T07:48:16;28.03;;;11.73;;
17488;SDS011;8861;52.644;4.734;2024-02-21T07:50:45;25.70;;;11.93;;
17488;SDS011;8861;52.644;4.734;2024-02-21T07:53:12;21.20;;;11.00;;
17488;SDS011;8861;52.644;4.734;2024-02-21T07:55:41;26.50;;;13.43;;
17488;SDS011;8861;52.644;4.734;2024-02-21T07:58:08;22.43;;;11.53;;
17488;SDS011;8861;52.644;4.734;2024-02-21T08:00:35;26.73;;;12.43;;
17488;SDS011;8861;52.644;4.734;2024-02-21T08:03:02;22.23;;;11.90;;
17488;SDS011;8861;52.644;4.734;2024-02-21T08:05:29;26.57;;;11.73;;
17488;SDS011;8861;52.644;4.734;2024-02-21T08:07:58;23.97;;;12.53;;
17488;SDS011;8861;52.644;4.734;2024-02-21T08:10:25;19.77;;;10.80;;
17488;SDS011;8861;52.644;4.734;2024-02-21T08:12:52;21.53;;;11.20;;
17488;SDS011;8861;52.644;4.734;2024-02-21T08:15:19;20.83;;;12.23;;
17488;SDS011;8861;52.644;4.734;2024-02-21T08:17:49;22.03;;;11.13;;
17488;SDS011;8861;52.644;4.734;2024-02-21T08:20:16;25.20;;;12.10;;
17488;SDS011;8861;52.644;4.734;2024-02-21T08:22:43;23.10;;;12.67;;
17488;SDS011;8861;52.644;4.734;2024-02-21T08:25:12;25.23;;;12.73;;
17488;SDS011;8861;52.644;4.734;2024-02-21T08:27:39;22.43;;;12.73;;
17488;SDS011;8861;52.644;4.734;2024-02-21T08:30:06;22.13;;;11.97;;
17488;SDS011;8861;52.644;4.734;2024-02-21T08:32:34;26.43;;;12.87;;
17488;SDS011;8861;52.644;4.734;2024-02-21T08:35:01;26.03;;;12.57;;
17488;SDS011;8861;52.644;4.734;2024-02-21T08:37:30;25.20;;;12.93;;
17488;SDS011;8861;52.644;4.734;2024-02-21T08:39:57;25.70;;;12.50;;
17488;SDS011;8861;52.644;4.734;2024-02-21T08:42:25;24.57;;;13.33;;
17488;SDS011;8861;52.644;4.734;2024-02-21T08:44:52;26.73;;;14.60;;
17488;SDS011;8861;52.644;4.734;2024-02-21T08:47:19;27.83;;;14.77;;
17488;SDS011;8861;52.644;4.734;2024-02-21T08:49:46;28.87;;;14.23;;
17488;SDS011;8861;52.644;4.734;2024-02-21T08:52:13;34.40;;;16.53;;
17488;SDS011;8861;52.644;4.734;2024-02-21T08:54:43;25.63;;;15.83;;
17488;SDS011;8861;52.644;4.734;2024-02-21T08:57:10;27.43;;;16.87;;
17488;SDS011;8861;52.644;4.734;2024-02-21T08:59:40;31.97;;;17.57;;
17488;SDS011;8861;52.644;4.734;2024-02-21T09:02:07;31.67;;;18.00;;
17488;SDS011;8861;52.644;4.734;2024-02-21T09:04:34;26.73;;;17.07;;
17488;SDS011;8861;52.644;4.734;2024-02-21T09:07:04;32.03;;;18.40;;
17488;SDS011;8861;52.644;4.734;2024-02-21T09:09:31;26.83;;;17.50;;
17488;SDS011;8861;52.644;4.734;2024-02-21T09:11:58;26.93;;;17.27;;
17488;SDS011;8861;52.644;4.734;2024-02-21T09:14:30;28.27;;;16.93;;
17488;SDS011;8861;52.644;4.734;2024-02-21T09:16:59;28.53;;;16.67;;
17488;SDS011;8861;52.644;4.734;2024-02-21T09:19:26;27.87;;;16.13;;
17488;SDS011;8861;52.644;4.734;2024-02-21T09:21:52;29.43;;;16.97;;
17488;SDS011;8861;52.644;4.734;2024-02-21T09:24:19;27.20;;;16.30;;
17488;SDS011;8861;52.644;4.734;2024-02-21T09:26:46;26.13;;;15.77;;
17488;SDS011;8861;52.644;4.734;2024-02-21T09:29:13;23.80;;;15.13;;
17488;SDS011;8861;52.644;4.734;2024-02-21T09:31:41;21.20;;;13.90;;
17488;SDS011;8861;52.644;4.734;2024-02-21T09:34:10;23.33;;;15.50;;
17488;SDS011;8861;52.644;4.734;2024-02-21T09:36:37;20.53;;;14.20;;
17488;SDS011;8861;52.644;4.734;2024-02-21T09:39:05;22.87;;;14.80;;
17488;SDS011;8861;52.644;4.734;2024-02-21T09:41:32;24.27;;;15.50;;
17488;SDS011;8861;52.644;4.734;2024-02-21T09:44:05;21.03;;;14.37;;
17488;SDS011;8861;52.644;4.734;2024-02-21T09:46:36;25.07;;;14.63;;
17488;SDS011;8861;52.644;4.734;2024-02-21T09:49:16;23.93;;;13.53;;
17488;SDS011;8861;52.644;4.734;2024-02-21T09:51:52;18.03;;;13.07;;
17488;SDS011;8861;52.644;4.734;2024-02-21T09:54:21;21.77;;;13.60;;
17488;SDS011;8861;52.644;4.734;2024-02-21T09:56:48;21.40;;;13.93;;
17488;SDS011;8861;52.644;4.734;2024-02-21T09:59:15;22.73;;;14.90;;
17488;SDS011;8861;52.644;4.734;2024-02-21T10:01:43;24.20;;;15.13;;
17488;SDS011;8861;52.644;4.734;2024-02-21T10:04:11;25.23;;;16.00;;
17488;SDS011;8861;52.644;4.734;2024-02-21T10:06:40;25.40;;;16.67;;
17488;SDS011;8861;52.644;4.734;2024-02-21T10:09:08;30.53;;;19.03;;
17488;SDS011;8861;52.644;4.734;2024-02-21T10:11:35;29.00;;;18.43;;
17488;SDS011;8861;52.644;4.734;2024-02-21T10:14:02;29.10;;;18.77;;
17488;SDS011;8861;52.644;4.734;2024-02-21T10:16:30;30.83;;;19.80;;
17488;SDS011;8861;52.644;4.734;2024-02-21T10:18:58;33.77;;;21.67;;
17488;SDS011;8861;52.644;4.734;2024-02-21T10:21:27;33.33;;;21.50;;
17488;SDS011;8861;52.644;4.734;2024-02-21T10:23:54;31.00;;;20.13;;
17488;SDS011;8861;52.644;4.734;2024-02-21T10:26:21;34.93;;;21.57;;
17488;SDS011;8861;52.644;4.734;2024-02-21T10:28:48;32.70;;;21.73;;
17488;SDS011;8861;52.644;4.734;2024-02-21T10:31:23;31.47;;;21.20;;
17488;SDS011;8861;52.644;4.734;2024-02-21T10:33:54;28.43;;;20.30;;
17488;SDS011;8861;52.644;4.734;2024-02-21T10:36:28;32.13;;;21.30;;
17488;SDS011;8861;52.644;4.734;2024-02-21T10:38:57;34.20;;;22.27;;
17488;SDS011;8861;52.644;4.734;2024-02-21T10:41:24;30.30;;;20.20;;
17488;SDS011;8861;52.644;4.734;2024-02-21T10:43:54;33.87;;;20.90;;
17488;SDS011;8861;52.644;4.734;2024-02-21T10:46:22;32.63;;;21.80;;
17488;SDS011;8861;52.644;4.734;2024-02-21T10:48:53;30.87;;;21.47;;
17488;SDS011;8861;52.644;4.734;2024-02-21T10:51:30;32.83;;;21.27;;
17488;SDS011;8861;52.644;4.734;2024-02-21T10:54:02;35.10;;;21.97;;
17488;SDS011;8861;52.644;4.734;2024-02-21T10:56:39;29.80;;;20.90;;
17488;SDS011;8861;52.644;4.734;2024-02-21T10:59:08;29.47;;;20.43;;
17488;SDS011;8861;52.644;4.734;2024-02-21T11:01:35;28.87;;;20.33;;
17488;SDS011;8861;52.644;4.734;2024-02-21T11:04:03;30.50;;;19.47;;
17488;SDS011;8861;52.644;4.734;2024-02-21T11:06:34;28.27;;;20.33;;
17488;SDS011;8861;52.644;4.734;2024-02-21T11:09:03;29.90;;;19.77;;
17488;SDS011;8861;52.644;4.734;2024-02-21T11:11:33;28.43;;;19.63;;
17488;SDS011;8861;52.644;4.734;2024-02-21T11:14:06;28.03;;;19.33;;
17488;SDS011;8861;52.644;4.734;2024-02-21T11:16:36;28.53;;;19.67;;
17488;SDS011;8861;52.644;4.734;2024-02-21T11:19:05;28.27;;;18.37;;
17488;SDS011;8861;52.644;4.734;2024-02-21T11:21:35;32.47;;;19.40;;
17488;SDS011;8861;52.644;4.734;2024-02-21T11:24:03;29.47;;;19.83;;
17488;SDS011;8861;52.644;4.734;2024-02-21T11:26:31;28.10;;;18.90;;
17488;SDS011;8861;52.644;4.734;2024-02-21T11:28:58;26.63;;;17.83;;
17488;SDS011;8861;52.644;4.734;2024-02-21T11:31:26;27.37;;;18.63;;
17488;SDS011;8861;52.644;4.734;2024-02-21T11:33:53;32.87;;;19.43;;
17488;SDS011;8861;52.644;4.734;2024-02-21T11:36:24;26.20;;;18.60;;
17488;SDS011;8861;52.644;4.734;2024-02-21T11:38:53;26.63;;;17.47;;
17488;SDS011;8861;52.644;4.734;2024-02-21T11:41:20;26.33;;;17.73;;
17488;SDS011;8861;52.644;4.734;2024-02-21T11:43:48;25.70;;;19.00;;
17488;SDS011;8861;52.644;4.734;2024-02-21T11:46:16;26.87;;;19.00;;
17488;SDS011;8861;52.644;4.734;2024-02-21T11:48:48;27.70;;;18.97;;
17488;SDS011;8861;52.644;4.734;2024-02-21T11:51:21;27.43;;;19.73;;
17488;SDS011;8861;52.644;4.734;2024-02-21T11:53:50;27.20;;;19.13;;
17488;SDS011;8861;52.644;4.734;2024-02-21T11:56:19;27.57;;;18.93;;
17488;SDS011;8861;52.644;4.734;2024-02-21T11:58:47;27.30;;;19.27;;
17488;SDS011;8861;52.644;4.734;2024-02-21T12:01:14;24.90;;;18.60;;
17488;SDS011;8861;52.644;4.734;2024-02-21T12:03:42;26.20;;;19.00;;
17488;SDS011;8861;52.644;4.734;2024-02-21T12:06:17;27.87;;;19.47;;
17488;SDS011;8861;52.644;4.734;2024-02-21T12:08:47;23.70;;;17.93;;
17488;SDS011;8861;52.644;4.734;2024-02-21T12:11:22;29.97;;;18.83;;
17488;SDS011;8861;52.644;4.734;2024-02-21T12:13:59;25.60;;;18.40;;
17488;SDS011;8861;52.644;4.734;2024-02-21T12:16:28;25.83;;;18.63;;
17488;SDS011;8861;52.644;4.734;2024-02-21T12:18:56;26.50;;;19.03;;
17488;SDS011;8861;52.644;4.734;2024-02-21T12:21:23;24.13;;;18.10;;
17488;SDS011;8861;52.644;4.734;2024-02-21T12:23:53;27.20;;;18.47;;
17488;SDS011;8861;52.644;4.734;2024-02-21T12:26:21;25.73;;;17.87;;
17488;SDS011;8861;52.644;4.734;2024-02-21T12:28:48;26.27;;;18.43;;
17488;SDS011;8861;52.644;4.734;2024-02-21T12:31:18;26.47;;;17.63;;
17488;SDS011;8861;52.644;4.734;2024-02-21T12:33:46;24.33;;;17.30;;
17488;SDS011;8861;52.644;4.734;2024-02-21T12:36:14;27.67;;;17.30;;
17488;SDS011;8861;52.644;4.734;2024-02-21T12:38:41;24.90;;;17.57;;
17488;SDS011;8861;52.644;4.734;2024-02-21T12:41:09;20.40;;;15.83;;
17488;SDS011;8861;52.644;4.734;2024-02-21T12:43:38;22.53;;;16.70;;
17488;SDS011;8861;52.644;4.734;2024-02-21T12:46:05;21.27;;;15.47;;
17488;SDS011;8861;52.644;4.734;2024-02-21T12:48:32;23.77;;;16.67;;
17488;SDS011;8861;52.644;4.734;2024-02-21T12:50:59;22.83;;;15.33;;
17488;SDS011;8861;52.644;4.734;2024-02-21T12:53:26;21.80;;;15.17;;
17488;SDS011;8861;52.644;4.734;2024-02-21T12:55:53;20.50;;;14.83;;
17488;SDS011;8861;52.644;4.734;2024-02-21T12:58:21;21.63;;;15.33;;
17488;SDS011;8861;52.644;4.734;2024-02-21T13:00:50;19.43;;;13.30;;
17488;SDS011;8861;52.644;4.734;2024-02-21T13:03:17;18.97;;;14.10;;
17488;SDS011;8861;52.644;4.734;2024-02-21T13:05:45;20.33;;;14.40;;
17488;SDS011;8861;52.644;4.734;2024-02-21T13:08:13;20.10;;;14.20;;
17488;SDS011;8861;52.644;4.734;2024-02-21T13:10:40;19.43;;;14.40;;
17488;SDS011;8861;52.644;4.734;2024-02-21T13:13:07;20.90;;;14.70;;
17488;SDS011;8861;52.644;4.734;2024-02-21T13:15:34;20.57;;;14.53;;
17488;SDS011;8861;52.644;4.734;2024-02-21T13:18:04;17.83;;;13.87;;
17488;SDS011;8861;52.644;4.734;2024-02-21T13:20:30;18.43;;;14.03;;
17488;SDS011;8861;52.644;4.734;2024-02-21T13:22:57;19.90;;;13.37;;
17488;SDS011;8861;52.644;4.734;2024-02-21T13:25:24;17.40;;;12.63;;
17488;SDS011;8861;52.644;4.734;2024-02-21T13:27:51;18.43;;;13.90;;
17488;SDS011;8861;52.644;4.734;2024-02-21T13:30:18;18.10;;;13.43;;
17488;SDS011;8861;52.644;4.734;2024-02-21T13:32:45;19.30;;;13.40;;
17488;SDS011;8861;52.644;4.734;2024-02-21T13:35:14;17.97;;;11.73;;
17488;SDS011;8861;52.644;4.734;2024-02-21T13:37:41;14.33;;;10.80;;
17488;SDS011;8861;52.644;4.734;2024-02-21T13:40:08;14.73;;;10.80;;
17488;SDS011;8861;52.644;4.734;2024-02-21T13:42:35;15.13;;;10.87;;
17488;SDS011;8861;52.644;4.734;2024-02-21T13:45:03;13.40;;;9.63;;
17488;SDS011;8861;52.644;4.734;2024-02-21T13:47:31;13.13;;;10.30;;
17488;SDS011;8861;52.644;4.734;2024-02-21T13:49:58;14.50;;;10.00;;
17488;SDS011;8861;52.644;4.734;2024-02-21T13:52:27;14.67;;;10.13;;
17488;SDS011;8861;52.644;4.734;2024-02-21T13:54:54;13.27;;;9.80;;
17488;SDS011;8861;52.644;4.734;2024-02-21T13:57:20;12.70;;;10.30;;
17488;SDS011;8861;52.644;4.734;2024-02-21T13:59:48;12.53;;;10.10;;
17488;SDS011;8861;52.644;4.734;2024-02-21T14:02:15;15.13;;;10.27;;
17488;SDS011;8861;52.644;4.734;2024-02-21T14:04:41;14.67;;;10.37;;
17488;SDS011;8861;52.644;4.734;2024-02-21T14:07:09;14.67;;;10.27;;
17488;SDS011;8861;52.644;4.734;2024-02-21T14:09:37;14.27;;;10.77;;
17488;SDS011;8861;52.644;4.734;2024-02-21T14:12:05;15.27;;;11.97;;
17488;SDS011;8861;52.644;4.734;2024-02-21T14:14:33;17.80;;;12.80;;
17488;SDS011;8861;52.644;4.734;2024-02-21T14:17:00;19.07;;;12.37;;
17488;SDS011;8861;52.644;4.734;2024-02-21T14:19:28;18.13;;;13.23;;
17488;SDS011;8861;52.644;4.734;2024-02-21T14:21:55;21.63;;;16.00;;
17488;SDS011;8861;52.644;4.734;2024-02-21T14:24:22;24.53;;;16.87;;
17488;SDS011;8861;52.644;4.734;2024-02-21T14:26:51;25.13;;;16.97;;
17488;SDS011;8861;52.644;4.734;2024-02-21T14:29:18;22.57;;;17.07;;
17488;SDS011;8861;52.644;4.734;2024-02-21T14:31:45;25.87;;;18.03;;
17488;SDS011;8861;52.644;4.734;2024-02-21T14:34:12;26.63;;;18.90;;
17488;SDS011;8861;52.644;4.734;2024-02-21T14:36:39;27.83;;;18.87;;
17488;SDS011;8861;52.644;4.734;2024-02-21T14:39:07;26.90;;;19.23;;
17488;SDS011;8861;52.644;4.734;2024-02-21T14:41:34;28.17;;;19.83;;
17488;SDS011;8861;52.644;4.734;2024-02-21T14:44:03;29.17;;;19.77;;